Time;durP1;ratioP1;P1;durP2;ratioP2;P2;SDS_P1;SDS_P2;PMS_P1;PMS_P2;Temp;Humidity;BMP_temperature;BMP_pressure;BME280_temperature;BME280_humidity;BME280_pressure;Samples;Min_cycle;Max_cycle;Signal;HPM_P1;HPM_P2
2022/07/17 00:01:37;;;;;;;2.85;2.63;;;;;;;;;;5029670;28;20333;-76
2022/07/17 00:04:02;;;;;;;3.28;2.97;;;;;;;;;;5043185;28;20044;-75
2022/07/17 00:06:27;;;;;;;3.47;3.17;;;;;;;;;;5043303;28;20029;-76
2022/07/17 00:08:53;;;;;;;5.53;3.70;;;;;;;;;;5042625;28;20502;-76
2022/07/17 00:11:18;;;;;;;4.40;3.47;;;;;;;;;;5042665;28;20410;-77
2022/07/17 00:13:44;;;;;;;3.10;2.90;;;;;;;;;;5041738;28;20417;-76
2022/07/17 00:16:09;;;;;;;3.13;2.92;;;;;;;;;;5042790;28;20033;-78
2022/07/17 00:18:34;;;;;;;3.30;3.00;;;;;;;;;;5042660;28;20033;-78
2022/07/17 00:21:00;;;;;;;3.00;2.80;;;;;;;;;;5036221;28;20131;-77
2022/07/17 00:23:25;;;;;;;4.43;3.13;;;;;;;;;;5038722;28;20563;-78
2022/07/17 00:25:51;;;;;;;3.33;3.03;;;;;;;;;;5021856;28;20036;-77
2022/07/17 00:28:16;;;;;;;5.15;2.83;;;;;;;;;;5041245;28;20044;-76
2022/07/17 00:30:41;;;;;;;2.95;2.60;;;;;;;;;;5043256;28;20017;-76
2022/07/17 00:33:06;;;;;;;3.13;2.92;;;;;;;;;;5042363;28;20108;-76
2022/07/17 00:35:32;;;;;;;3.40;3.10;;;;;;;;;;5042142;28;20032;-78
2022/07/17 00:37:57;;;;;;;2.92;2.72;;;;;;;;;;5042425;28;20036;-77
2022/07/17 00:40:23;;;;;;;3.92;3.25;;;;;;;;;;5041466;28;20330;-77
2022/07/17 00:42:49;;;;;;;3.03;2.72;;;;;;;;;;5045286;28;20036;-77
2022/07/17 00:45:15;;;;;;;3.45;3.15;;;;;;;;;;5038002;28;20036;-77
2022/07/17 00:48:00;;;;;;;3.22;2.92;;;;;;;;;;5042059;28;20395;-76
2022/07/17 00:50:30;;;;;;;4.65;3.22;;;;;;;;;;5042321;28;20017;-77
2022/07/17 00:52:55;;;;;;;3.45;3.15;;;;;;;;;;5033872;28;20053;-76
2022/07/17 00:55:21;;;;;;;3.75;3.00;;;;;;;;;;5043606;28;20090;-78
2022/07/17 00:57:47;;;;;;;3.42;3.13;;;;;;;;;;5046491;28;20401;-80
2022/07/17 01:00:13;;;;;;;3.55;3.25;;;;;;;;;;5027143;28;20116;-77
2022/07/17 01:02:39;;;;;;;3.88;3.45;;;;;;;;;;5013121;28;20661;-76
2022/07/17 01:05:05;;;;;;;3.15;2.95;;;;;;;;;;5042941;28;20448;-76
2022/07/17 01:07:30;;;;;;;3.60;3.30;;;;;;;;;;5034043;28;20037;-76
2022/07/17 01:09:55;;;;;;;4.10;3.35;;;;;;;;;;5035430;28;20117;-76
2022/07/17 01:12:22;;;;;;;4.53;3.28;;;;;;;;;;5042398;28;20037;-76
2022/07/17 01:14:48;;;;;;;3.35;3.05;;;;;;;;;;5031334;28;20021;-77
2022/07/17 01:17:13;;;;;;;3.30;2.90;;;;;;;;;;5028812;28;20389;-76
2022/07/17 01:19:39;;;;;;;3.95;3.40;;;;;;;;;;5026307;28;20455;-80
2022/07/17 01:22:04;;;;;;;3.35;3.08;;;;;;;;;;5023244;28;20463;-75
2022/07/17 01:24:29;;;;;;;5.00;3.58;;;;;;;;;;5031862;28;20044;-78
2022/07/17 01:26:55;;;;;;;3.65;3.33;;;;;;;;;;5042614;28;20123;-76
2022/07/17 01:29:20;;;;;;;3.63;3.38;;;;;;;;;;5034656;28;20025;-78
2022/07/17 01:31:45;;;;;;;3.38;3.15;;;;;;;;;;5033437;28;20029;-76
2022/07/17 01:34:14;;;;;;;3.28;2.95;;;;;;;;;;5028589;28;20437;-76
2022/07/17 01:36:40;;;;;;;4.97;3.25;;;;;;;;;;5031179;28;20083;-76
2022/07/17 01:39:06;;;;;;;3.40;3.10;;;;;;;;;;5027897;28;20120;-76
2022/07/17 01:41:32;;;;;;;3.50;3.20;;;;;;;;;;5041338;28;20115;-76
2022/07/17 01:43:58;;;;;;;3.55;3.25;;;;;;;;;;5041619;28;20495;-79
2022/07/17 01:46:24;;;;;;;3.92;3.53;;;;;;;;;;5040754;28;20033;-77
2022/07/17 01:48:50;;;;;;;3.20;3.00;;;;;;;;;;5041294;28;20035;-76
2022/07/17 01:51:15;;;;;;;3.83;3.45;;;;;;;;;;5042322;28;20029;-77
2022/07/17 01:53:40;;;;;;;4.43;3.53;;;;;;;;;;5043826;28;20049;-77
2022/07/17 01:56:06;;;;;;;5.30;3.50;;;;;;;;;;5031648;28;20040;-76
2022/07/17 01:58:31;;;;;;;3.75;3.45;;;;;;;;;;5045463;28;20029;-78
2022/07/17 02:00:57;;;;;;;4.22;3.40;;;;;;;;;;5045962;28;20415;-76
2022/07/17 02:03:22;;;;;;;3.60;3.30;;;;;;;;;;5045594;28;20029;-78
2022/07/17 02:05:47;;;;;;;3.88;3.58;;;;;;;;;;5045747;28;20028;-74
2022/07/17 02:08:13;;;;;;;3.60;3.30;;;;;;;;;;5045305;28;20066;-74
2022/07/17 02:10:38;;;;;;;3.60;3.30;;;;;;;;;;5033770;28;20025;-73
2022/07/17 02:13:04;;;;;;;3.80;3.50;;;;;;;;;;5042512;28;20455;-77
2022/07/17 02:15:29;;;;;;;4.53;3.00;;;;;;;;;;5045192;28;20099;-76
2022/07/17 02:17:54;;;;;;;4.60;3.50;;;;;;;;;;5044269;28;20033;-77
2022/07/17 02:20:20;;;;;;;3.40;3.10;;;;;;;;;;5045129;28;20435;-78
2022/07/17 02:22:46;;;;;;;3.88;3.53;;;;;;;;;;5044357;28;20050;-78
2022/07/17 02:25:11;;;;;;;4.10;3.50;;;;;;;;;;5044727;28;20035;-76
2022/07/17 02:27:37;;;;;;;4.00;3.60;;;;;;;;;;5040741;28;20357;-75
2022/07/17 02:30:03;;;;;;;3.95;3.47;;;;;;;;;;5035981;28;20028;-75
2022/07/17 02:32:28;;;;;;;4.13;3.60;;;;;;;;;;5044318;28;20033;-76
2022/07/17 02:34:54;;;;;;;4.05;3.67;;;;;;;;;;5045022;28;20322;-75
2022/07/17 02:37:19;;;;;;;3.70;3.40;;;;;;;;;;5044474;28;20487;-79
2022/07/17 02:39:53;;;;;;;3.88;3.50;;;;;;;;;;5044864;28;20440;-77
2022/07/17 02:42:22;;;;;;;3.85;3.55;;;;;;;;;;5045180;28;20115;-76
2022/07/17 02:44:48;;;;;;;5.07;3.88;;;;;;;;;;5043980;28;20028;-77
2022/07/17 02:47:20;;;;;;;3.88;3.58;;;;;;;;;;5044229;28;20044;-78
2022/07/17 02:49:45;;;;;;;4.53;3.75;;;;;;;;;;5044041;28;20033;-80
2022/07/17 02:52:11;;;;;;;4.00;3.70;;;;;;;;;;5043391;28;20068;-76
2022/07/17 02:54:36;;;;;;;5.78;3.80;;;;;;;;;;5044407;28;20037;-76
2022/07/17 02:57:01;;;;;;;3.80;3.50;;;;;;;;;;5044590;28;20068;-76
2022/07/17 02:59:27;;;;;;;4.50;3.83;;;;;;;;;;5044399;28;20460;-75
2022/07/17 03:01:52;;;;;;;5.07;3.60;;;;;;;;;;5044579;28;20025;-79
2022/07/17 03:04:17;;;;;;;4.03;3.63;;;;;;;;;;5043990;28;20107;-76
2022/07/17 03:06:43;;;;;;;4.18;3.45;;;;;;;;;;5044464;28;20053;-76
2022/07/17 03:09:08;;;;;;;4.18;3.72;;;;;;;;;;5030899;28;20059;-76
2022/07/17 03:11:34;;;;;;;4.35;3.83;;;;;;;;;;5044406;28;20035;-76
2022/07/17 03:13:59;;;;;;;4.15;3.75;;;;;;;;;;5043318;28;20029;-77
2022/07/17 03:16:24;;;;;;;4.50;4.00;;;;;;;;;;5044431;28;20086;-76
2022/07/17 03:18:50;;;;;;;4.05;3.55;;;;;;;;;;5044492;28;20029;-76
2022/07/17 03:21:15;;;;;;;15.48;4.38;;;;;;;;;;5028629;28;20029;-78
2022/07/17 03:23:40;;;;;;;4.78;4.28;;;;;;;;;;5045019;28;20094;-77
2022/07/17 03:26:06;;;;;;;4.90;4.50;;;;;;;;;;5043335;28;20070;-77
2022/07/17 03:28:31;;;;;;;4.32;3.92;;;;;;;;;;5043424;28;20027;-78
2022/07/17 03:30:56;;;;;;;4.90;4.22;;;;;;;;;;5029861;28;20372;-76
2022/07/17 03:33:22;;;;;;;4.63;3.78;;;;;;;;;;5043872;28;20025;-76
2022/07/17 03:35:47;;;;;;;6.38;3.70;;;;;;;;;;5043567;28;20108;-76
2022/07/17 03:38:12;;;;;;;4.55;3.42;;;;;;;;;;5043507;28;20029;-76
2022/07/17 03:40:38;;;;;;;4.55;4.15;;;;;;;;;;5043857;28;20437;-75
2022/07/17 03:43:03;;;;;;;4.20;3.80;;;;;;;;;;5033593;28;20035;-76
2022/07/17 03:45:28;;;;;;;5.13;4.00;;;;;;;;;;5043652;28;20108;-77
2022/07/17 03:47:54;;;;;;;6.35;4.03;;;;;;;;;;5044279;28;20112;-77
2022/07/17 03:50:19;;;;;;;3.90;3.60;;;;;;;;;;5043061;28;20956;-78
2022/07/17 03:52:44;;;;;;;6.43;4.20;;;;;;;;;;5043594;28;20041;-77
2022/07/17 03:55:10;;;;;;;4.07;3.75;;;;;;;;;;5042354;28;20059;-75
2022/07/17 03:57:35;;;;;;;4.85;4.10;;;;;;;;;;5042345;28;20519;-76
2022/07/17 04:00:01;;;;;;;3.85;3.55;;;;;;;;;;5046004;28;20474;-76
2022/07/17 04:02:26;;;;;;;4.38;3.97;;;;;;;;;;5041912;28;20037;-76
2022/07/17 04:04:52;;;;;;;4.40;3.88;;;;;;;;;;5042368;28;20017;-76
2022/07/17 04:07:30;;;;;;;3.90;3.60;;;;;;;;;;5042756;28;20059;-76
2022/07/17 04:09:56;;;;;;;4.75;4.30;;;;;;;;;;5041912;28;20086;-76
2022/07/17 04:12:22;;;;;;;5.53;4.38;;;;;;;;;;5042219;28;20029;-75
2022/07/17 04:14:47;;;;;;;4.93;4.15;;;;;;;;;;5044714;28;20031;-77
2022/07/17 04:17:12;;;;;;;4.63;4.22;;;;;;;;;;5034442;28;20037;-75
2022/07/17 04:19:38;;;;;;;6.20;4.72;;;;;;;;;;5041153;28;20363;-76
2022/07/17 04:22:03;;;;;;;4.75;3.80;;;;;;;;;;5040758;28;20060;-75
2022/07/17 04:24:28;;;;;;;5.53;5.03;;;;;;;;;;5048387;28;20059;-75
2022/07/17 04:26:54;;;;;;;7.20;4.82;;;;;;;;;;5030329;28;20021;-75
2022/07/17 04:29:19;;;;;;;5.30;4.80;;;;;;;;;;5040561;28;20407;-74
2022/07/17 04:31:44;;;;;;;4.82;4.20;;;;;;;;;;5041616;28;20052;-75
2022/07/17 04:34:10;;;;;;;4.40;4.03;;;;;;;;;;5040886;28;20029;-74
2022/07/17 04:36:35;;;;;;;4.45;4.03;;;;;;;;;;5040052;28;20025;-76
2022/07/17 04:39:00;;;;;;;4.45;4.05;;;;;;;;;;5041795;28;20059;-77
2022/07/17 04:41:26;;;;;;;4.75;4.20;;;;;;;;;;5040974;28;20349;-76
2022/07/17 04:43:51;;;;;;;6.75;6.05;;;;;;;;;;5041418;28;21017;-77
2022/07/17 04:46:16;;;;;;;10.27;7.38;;;;;;;;;;5041101;28;20037;-74
2022/07/17 04:48:42;;;;;;;17.77;11.57;;;;;;;;;;5041626;28;20032;-75
2022/07/17 04:51:07;;;;;;;17.75;11.13;;;;;;;;;;5042851;28;20033;-75
2022/07/17 04:53:33;;;;;;;17.25;13.38;;;;;;;;;;5030723;28;20091;-77
2022/07/17 04:55:59;;;;;;;12.30;8.43;;;;;;;;;;5039342;28;20033;-75
2022/07/17 04:58:24;;;;;;;12.90;8.43;;;;;;;;;;5029918;28;20455;-77
2022/07/17 05:00:50;;;;;;;8.57;6.53;;;;;;;;;;5032484;28;20134;-76
2022/07/17 05:03:16;;;;;;;7.43;5.72;;;;;;;;;;5036186;28;20144;-76
2022/07/17 05:05:41;;;;;;;11.18;6.30;;;;;;;;;;5029843;28;20143;-75
2022/07/17 05:08:06;;;;;;;9.88;5.65;;;;;;;;;;5026362;28;20052;-76
2022/07/17 05:10:32;;;;;;;7.50;4.05;;;;;;;;;;5027277;28;20343;-74
2022/07/17 05:12:57;;;;;;;6.40;5.78;;;;;;;;;;5033927;28;20036;-75
2022/07/17 05:15:22;;;;;;;8.05;7.28;;;;;;;;;;5039641;28;20111;-75
2022/07/17 05:17:48;;;;;;;8.32;6.13;;;;;;;;;;5037884;28;20482;-72
2022/07/17 05:20:13;;;;;;;5.93;5.30;;;;;;;;;;5029786;28;20037;-74
2022/07/17 05:22:38;;;;;;;6.80;4.97;;;;;;;;;;5028365;28;20013;-73
2022/07/17 05:25:04;;;;;;;6.45;4.78;;;;;;;;;;5030204;28;20032;-74
2022/07/17 05:27:30;;;;;;;6.47;4.63;;;;;;;;;;5041753;28;20701;-75
2022/07/17 05:29:55;;;;;;;4.60;3.97;;;;;;;;;;5043153;28;20021;-74
2022/07/17 05:32:21;;;;;;;4.82;3.80;;;;;;;;;;5031968;28;20383;-73
2022/07/17 05:34:46;;;;;;;3.70;3.40;;;;;;;;;;5032144;28;20048;-73
2022/07/17 05:37:11;;;;;;;5.80;3.50;;;;;;;;;;5044972;28;20403;-73
2022/07/17 05:39:38;;;;;;;6.80;3.83;;;;;;;;;;5044379;28;20032;-73
2022/07/17 05:42:04;;;;;;;3.92;3.53;;;;;;;;;;5043981;28;20017;-74
2022/07/17 05:44:29;;;;;;;3.70;3.40;;;;;;;;;;5044911;28;20059;-74
2022/07/17 05:46:54;;;;;;;4.43;3.42;;;;;;;;;;5044683;28;20029;-75
2022/07/17 05:49:20;;;;;;;4.95;3.38;;;;;;;;;;5043642;28;20029;-72
2022/07/17 05:51:45;;;;;;;3.92;3.55;;;;;;;;;;5043652;28;20082;-73
2022/07/17 05:54:10;;;;;;;4.10;3.78;;;;;;;;;;5044922;28;20099;-73
2022/07/17 05:56:36;;;;;;;3.80;3.50;;;;;;;;;;5044708;28;20421;-72
2022/07/17 05:59:02;;;;;;;5.32;4.00;;;;;;;;;;5044198;28;20025;-73
2022/07/17 06:01:27;;;;;;;3.70;3.38;;;;;;;;;;5044371;28;20025;-75
2022/07/17 06:03:52;;;;;;;3.70;3.40;;;;;;;;;;5044086;28;20044;-74
2022/07/17 06:06:18;;;;;;;5.22;3.25;;;;;;;;;;5048632;28;20028;-76
2022/07/17 06:08:43;;;;;;;3.65;3.35;;;;;;;;;;5032381;28;20017;-79
2022/07/17 06:11:08;;;;;;;3.70;3.40;;;;;;;;;;5030105;28;20460;-77
2022/07/17 06:13:34;;;;;;;3.90;3.50;;;;;;;;;;5029222;28;20060;-75
2022/07/17 06:15:59;;;;;;;3.63;3.33;;;;;;;;;;5030426;28;20079;-74
2022/07/17 06:18:25;;;;;;;4.15;3.50;;;;;;;;;;5030107;28;20029;-76
2022/07/17 06:20:50;;;;;;;5.88;3.60;;;;;;;;;;5030059;28;20778;-74
2022/07/17 06:23:16;;;;;;;6.03;3.30;;;;;;;;;;5029901;28;20025;-77
2022/07/17 06:25:41;;;;;;;5.03;3.30;;;;;;;;;;5030671;28;20543;-77
2022/07/17 06:28:06;;;;;;;3.60;3.30;;;;;;;;;;5030128;28;20032;-73
2022/07/17 06:30:32;;;;;;;4.18;2.67;;;;;;;;;;5025859;28;20037;-78
2022/07/17 06:32:57;;;;;;;3.17;2.75;;;;;;;;;;5033855;28;20040;-72
2022/07/17 06:35:23;;;;;;;5.90;2.90;;;;;;;;;;5043450;28;20029;-71
2022/07/17 06:37:48;;;;;;;3.67;2.90;;;;;;;;;;5029605;28;20101;-73
2022/07/17 06:40:13;;;;;;;3.33;2.75;;;;;;;;;;5031513;28;20116;-73
2022/07/17 06:42:39;;;;;;;3.95;3.20;;;;;;;;;;5029925;28;20739;-72
2022/07/17 06:45:04;;;;;;;3.47;3.17;;;;;;;;;;5029636;28;20392;-73
2022/07/17 06:47:30;;;;;;;3.40;3.10;;;;;;;;;;5030558;28;20025;-71
2022/07/17 06:49:55;;;;;;;3.70;3.35;;;;;;;;;;5028708;28;21061;-75
2022/07/17 06:52:20;;;;;;;7.53;3.58;;;;;;;;;;5029033;28;20484;-72
2022/07/17 06:54:46;;;;;;;5.68;3.53;;;;;;;;;;5029611;28;20357;-76
2022/07/17 06:57:12;;;;;;;3.75;3.35;;;;;;;;;;5014137;28;20048;-72
2022/07/17 06:59:38;;;;;;;4.63;3.28;;;;;;;;;;5029528;28;20078;-71
2022/07/17 07:02:03;;;;;;;3.63;3.22;;;;;;;;;;5028620;28;20032;-72
2022/07/17 07:04:28;;;;;;;3.70;3.03;;;;;;;;;;5030403;28;20029;-74
2022/07/17 07:06:54;;;;;;;3.53;2.97;;;;;;;;;;5028379;28;20422;-76
2022/07/17 07:09:19;;;;;;;4.00;3.38;;;;;;;;;;5028875;28;20083;-73
2022/07/17 07:11:45;;;;;;;8.45;3.30;;;;;;;;;;5027857;28;20040;-75
2022/07/17 07:14:10;;;;;;;7.13;3.55;;;;;;;;;;5032205;28;20135;-76
2022/07/17 07:16:35;;;;;;;5.07;3.35;;;;;;;;;;5041437;28;20067;-72
2022/07/17 07:19:01;;;;;;;5.82;3.90;;;;;;;;;;5032671;28;20052;-74
2022/07/17 07:21:26;;;;;;;4.55;3.53;;;;;;;;;;5036133;28;20443;-71
2022/07/17 07:23:52;;;;;;;3.70;3.40;;;;;;;;;;5045623;28;20436;-75
2022/07/17 07:26:18;;;;;;;3.80;3.50;;;;;;;;;;5042476;28;20534;-73
2022/07/17 07:28:43;;;;;;;4.15;3.72;;;;;;;;;;5042603;28;20025;-73
2022/07/17 07:31:10;;;;;;;5.18;3.75;;;;;;;;;;5029685;28;20027;-72
2022/07/17 07:33:35;;;;;;;3.60;3.30;;;;;;;;;;5030503;28;20025;-73
2022/07/17 07:36:01;;;;;;;3.97;3.05;;;;;;;;;;5041925;28;20070;-71
2022/07/17 07:38:26;;;;;;;3.50;3.20;;;;;;;;;;5031542;28;20029;-71
2022/07/17 07:40:51;;;;;;;4.10;3.13;;;;;;;;;;5042187;28;20029;-72
2022/07/17 07:43:17;;;;;;;3.60;3.25;;;;;;;;;;5041502;28;20051;-73
2022/07/17 07:45:42;;;;;;;4.32;3.55;;;;;;;;;;5029115;28;20032;-75
2022/07/17 07:48:08;;;;;;;4.32;3.60;;;;;;;;;;5029929;28;20024;-72
2022/07/17 07:50:33;;;;;;;4.60;3.40;;;;;;;;;;5034315;28;20462;-75
2022/07/17 07:52:58;;;;;;;3.80;2.85;;;;;;;;;;5042646;28;20040;-72
2022/07/17 07:55:25;;;;;;;3.55;3.10;;;;;;;;;;5043159;28;20658;-76
2022/07/17 07:58:00;;;;;;;3.42;2.90;;;;;;;;;;5028467;28;20033;-72
2022/07/17 08:00:25;;;;;;;4.03;3.00;;;;;;;;;;5032040;28;20106;-74
2022/07/17 08:02:51;;;;;;;3.65;3.00;;;;;;;;;;5045644;28;20689;-74
2022/07/17 08:05:16;;;;;;;3.42;3.00;;;;;;;;;;5035485;28;20167;-73
2022/07/17 08:07:41;;;;;;;4.10;3.17;;;;;;;;;;5028084;28;20125;-72
2022/07/17 08:10:07;;;;;;;2.92;2.72;;;;;;;;;;5038395;28;20055;-72
2022/07/17 08:12:32;;;;;;;3.10;2.88;;;;;;;;;;5041803;28;20048;-72
2022/07/17 08:14:58;;;;;;;3.45;2.83;;;;;;;;;;5031762;28;20090;-73
2022/07/17 08:17:23;;;;;;;4.47;2.80;;;;;;;;;;5034411;28;20041;-74
2022/07/17 08:19:48;;;;;;;4.70;3.10;;;;;;;;;;5042686;28;20471;-75
2022/07/17 08:22:14;;;;;;;3.38;2.95;;;;;;;;;;5042102;28;20024;-79
2022/07/17 08:24:39;;;;;;;4.05;3.17;;;;;;;;;;5042876;28;20739;-76
2022/07/17 08:27:04;;;;;;;3.47;3.17;;;;;;;;;;5038767;28;20083;-76
2022/07/17 08:29:30;;;;;;;3.00;2.78;;;;;;;;;;5027690;28;20118;-79
2022/07/17 08:31:55;;;;;;;3.10;2.80;;;;;;;;;;5031121;28;20021;-78
2022/07/17 08:34:21;;;;;;;3.75;3.05;;;;;;;;;;5030117;28;20040;-74
2022/07/17 08:36:47;;;;;;;3.40;2.80;;;;;;;;;;5019648;28;20460;-75
2022/07/17 08:39:12;;;;;;;5.15;2.83;;;;;;;;;;5030929;28;20443;-75
2022/07/17 08:41:38;;;;;;;2.45;2.25;;;;;;;;;;5030476;28;20028;-74
2022/07/17 08:44:04;;;;;;;3.83;2.80;;;;;;;;;;5032721;28;20025;-77
2022/07/17 08:46:30;;;;;;;3.20;2.70;;;;;;;;;;5034255;28;20054;-77
2022/07/17 08:48:58;;;;;;;3.28;2.97;;;;;;;;;;5031058;28;20025;-76
2022/07/17 08:51:24;;;;;;;3.67;2.70;;;;;;;;;;5032288;28;20032;-87
2022/07/17 08:53:49;;;;;;;3.92;2.70;;;;;;;;;;5039658;28;20371;-86
2022/07/17 08:56:15;;;;;;;3.88;2.85;;;;;;;;;;5034156;28;20653;-75
2022/07/17 08:58:40;;;;;;;3.92;2.97;;;;;;;;;;5036146;28;20025;-77
2022/07/17 09:01:06;;;;;;;3.38;2.90;;;;;;;;;;5037529;28;20032;-79
2022/07/17 09:03:31;;;;;;;3.28;2.63;;;;;;;;;;5033195;28;20348;-76
2022/07/17 09:05:56;;;;;;;2.70;2.50;;;;;;;;;;5034847;28;20111;-74
2022/07/17 09:08:23;;;;;;;3.25;2.83;;;;;;;;;;5034516;28;20106;-83
2022/07/17 09:10:51;;;;;;;4.47;2.50;;;;;;;;;;5037268;28;20021;-79
2022/07/17 09:13:21;;;;;;;2.97;2.63;;;;;;;;;;5038347;28;20025;-81
2022/07/17 09:15:48;;;;;;;5.07;2.85;;;;;;;;;;5034433;28;20025;-75
2022/07/17 09:18:14;;;;;;;3.03;2.22;;;;;;;;;;5036144;28;20025;-75
2022/07/17 09:20:49;;;;;;;3.25;2.58;;;;;;;;;;5037143;28;20407;-80
2022/07/17 09:23:14;;;;;;;5.22;2.50;;;;;;;;;;5037533;28;20432;-75
2022/07/17 09:25:41;;;;;;;4.50;2.67;;;;;;;;;;5037932;28;20020;-85
2022/07/17 09:28:07;;;;;;;3.00;2.80;;;;;;;;;;5036050;28;20066;-85
2022/07/17 09:30:34;;;;;;;3.03;2.83;;;;;;;;;;5036869;28;20026;-73
2022/07/17 09:33:00;;;;;;;2.75;2.58;;;;;;;;;;5034586;28;20115;-79
2022/07/17 09:35:26;;;;;;;4.15;3.10;;;;;;;;;;5036791;28;20104;-76
2022/07/17 09:37:52;;;;;;;2.80;2.50;;;;;;;;;;5036683;28;20036;-86
2022/07/17 09:43:02;;;;;;;2.70;2.50;;;;;;;;;;5036713;28;22787;-75
2022/07/17 09:45:27;;;;;;;3.35;2.83;;;;;;;;;;5043177;28;20440;-76
2022/07/17 09:47:53;;;;;;;3.17;2.60;;;;;;;;;;5045615;28;20082;-75
2022/07/17 09:50:19;;;;;;;3.25;2.95;;;;;;;;;;5043485;28;20028;-79
2022/07/17 09:52:44;;;;;;;3.30;2.95;;;;;;;;;;5041798;28;20049;-79
2022/07/17 09:55:10;;;;;;;3.35;3.05;;;;;;;;;;5042951;28;20138;-77
2022/07/17 09:57:39;;;;;;;3.13;2.83;;;;;;;;;;5045616;28;20036;-76
2022/07/17 10:00:06;;;;;;;3.22;3.00;;;;;;;;;;5045818;28;20052;-88
2022/07/17 10:02:33;;;;;;;3.92;3.05;;;;;;;;;;5029349;28;20029;-74
2022/07/17 10:04:58;;;;;;;2.63;2.42;;;;;;;;;;5040139;28;20036;-78
2022/07/17 10:07:24;;;;;;;2.85;2.65;;;;;;;;;;5040445;28;20115;-78
2022/07/17 10:09:49;;;;;;;3.75;3.45;;;;;;;;;;5042761;28;20029;-76
2022/07/17 10:12:16;;;;;;;3.40;3.10;;;;;;;;;;5027896;28;20039;-81
2022/07/17 10:14:42;;;;;;;4.00;2.92;;;;;;;;;;5045487;28;20534;-84
2022/07/17 10:17:08;;;;;;;3.42;3.10;;;;;;;;;;5043770;28;20037;-78
2022/07/17 10:19:43;;;;;;;3.08;2.83;;;;;;;;;;5045948;28;20079;-86
2022/07/17 10:22:08;;;;;;;3.40;3.10;;;;;;;;;;5045245;28;20510;-74
2022/07/17 10:24:44;;;;;;;4.32;2.85;;;;;;;;;;5044993;28;20012;-75
2022/07/17 10:27:17;;;;;;;3.13;2.83;;;;;;;;;;5046031;28;20033;-80
2022/07/17 10:29:42;;;;;;;3.75;2.90;;;;;;;;;;5046495;28;20372;-82
2022/07/17 10:32:13;;;;;;;4.65;2.95;;;;;;;;;;5031708;28;20047;-81
2022/07/17 10:34:45;;;;;;;3.10;2.80;;;;;;;;;;5047185;28;20087;-76
2022/07/17 10:37:22;;;;;;;2.95;2.65;;;;;;;;;;5044917;28;20051;-85
2022/07/17 10:39:53;;;;;;;3.97;3.05;;;;;;;;;;5045453;28;20117;-82
2022/07/17 10:42:36;;;;;;;4.93;2.97;;;;;;;;;;5044537;28;20025;-77
2022/07/17 10:45:06;;;;;;;3.47;3.17;;;;;;;;;;5046302;28;20393;-81
2022/07/17 10:47:41;;;;;;;4.20;2.72;;;;;;;;;;5045594;28;20040;-87
2022/07/17 10:50:07;;;;;;;2.70;2.50;;;;;;;;;;5044522;28;20036;-75
2022/07/17 10:52:33;;;;;;;2.88;2.50;;;;;;;;;;5043364;28;20488;-86
2022/07/17 10:54:58;;;;;;;2.90;2.70;;;;;;;;;;5041724;28;20785;-78
2022/07/17 10:57:23;;;;;;;4.43;3.35;;;;;;;;;;5046440;28;20069;-76
2022/07/17 10:59:49;;;;;;;2.95;2.70;;;;;;;;;;5046648;28;20060;-86
2022/07/17 11:02:14;;;;;;;2.95;2.75;;;;;;;;;;5046065;28;20025;-73
2022/07/17 11:04:40;;;;;;;2.88;2.67;;;;;;;;;;5045749;28;20052;-74
2022/07/17 11:07:08;;;;;;;3.42;2.72;;;;;;;;;;5044184;28;20045;-74
2022/07/17 11:09:33;;;;;;;4.10;2.60;;;;;;;;;;5046213;28;20021;-78
2022/07/17 11:11:59;;;;;;;2.67;2.45;;;;;;;;;;5046753;28;20106;-79
2022/07/17 11:14:26;;;;;;;3.28;2.10;;;;;;;;;;5045480;28;20075;-78
2022/07/17 11:16:53;;;;;;;2.97;2.67;;;;;;;;;;5044835;28;20033;-78
2022/07/17 11:19:21;;;;;;;1.92;1.83;;;;;;;;;;5046591;28;20147;-77
2022/07/17 11:21:47;;;;;;;2.70;2.50;;;;;;;;;;5037807;28;20029;-78
2022/07/17 11:24:13;;;;;;;4.25;2.40;;;;;;;;;;5043091;28;20028;-73
2022/07/17 11:26:38;;;;;;;2.67;2.35;;;;;;;;;;5043746;28;20510;-77
2022/07/17 11:29:03;;;;;;;2.53;2.33;;;;;;;;;;5044189;28;20748;-75
2022/07/17 11:31:29;;;;;;;2.80;2.53;;;;;;;;;;5037524;28;20037;-77
2022/07/17 11:33:57;;;;;;;3.00;2.05;;;;;;;;;;5044216;28;20029;-80
2022/07/17 11:36:24;;;;;;;2.28;1.88;;;;;;;;;;5043954;28;20037;-78
2022/07/17 11:38:49;;;;;;;2.53;2.10;;;;;;;;;;5037343;28;20029;-77
2022/07/17 11:41:18;;;;;;;2.20;2.10;;;;;;;;;;5035177;28;20033;-86
2022/07/17 11:43:43;;;;;;;2.47;2.20;;;;;;;;;;5033936;28;20024;-75
2022/07/17 11:46:09;;;;;;;2.92;2.47;;;;;;;;;;5031738;28;20033;-79
2022/07/17 11:48:34;;;;;;;2.50;2.10;;;;;;;;;;5028914;28;20040;-79
2022/07/17 11:51:00;;;;;;;2.08;1.88;;;;;;;;;;5031359;28;20558;-82
2022/07/17 11:53:35;;;;;;;3.33;2.15;;;;;;;;;;5029511;28;20045;-75
2022/07/17 11:56:01;;;;;;;2.20;2.00;;;;;;;;;;5042640;28;20506;-75
2022/07/17 11:58:26;;;;;;;2.00;1.80;;;;;;;;;;5033900;28;20029;-75
2022/07/17 12:01:04;;;;;;;1.92;1.80;;;;;;;;;;5043102;28;20037;-80
2022/07/17 12:03:30;;;;;;;2.47;2.15;;;;;;;;;;5030839;28;20029;-72
2022/07/17 12:05:56;;;;;;;2.75;1.80;;;;;;;;;;5041451;28;20025;-71
2022/07/17 12:08:21;;;;;;;2.28;1.80;;;;;;;;;;5036574;28;20387;-71
2022/07/17 12:10:47;;;;;;;1.98;1.88;;;;;;;;;;5033291;28;20056;-77
2022/07/17 12:13:14;;;;;;;2.20;1.90;;;;;;;;;;5032238;28;20035;-80
2022/07/17 12:15:43;;;;;;;6.60;2.40;;;;;;;;;;5043602;28;20029;-74
2022/07/17 12:18:23;;;;;;;2.53;1.98;;;;;;;;;;5042961;28;20147;-81
2022/07/17 12:20:50;;;;;;;2.42;2.03;;;;;;;;;;5040918;28;20086;-74
2022/07/17 12:23:34;;;;;;;1.95;1.80;;;;;;;;;;5042012;28;20432;-74
2022/07/17 12:26:06;;;;;;;1.92;1.77;;;;;;;;;;5041786;28;20027;-76
2022/07/17 12:28:32;;;;;;;1.95;1.85;;;;;;;;;;5026804;28;20462;-75
2022/07/17 12:30:57;;;;;;;3.05;2.10;;;;;;;;;;5028121;28;20029;-71
2022/07/17 12:33:22;;;;;;;1.90;1.80;;;;;;;;;;5028210;28;20032;-75
2022/07/17 12:35:48;;;;;;;2.22;1.98;;;;;;;;;;5028221;28;20032;-72
2022/07/17 12:38:13;;;;;;;2.70;1.85;;;;;;;;;;5030190;28;20380;-72
2022/07/17 12:40:38;;;;;;;2.97;1.92;;;;;;;;;;5015086;28;20017;-79
2022/07/17 12:43:04;;;;;;;1.85;1.75;;;;;;;;;;5026934;28;20025;-76
2022/07/17 12:45:29;;;;;;;2.65;2.10;;;;;;;;;;5030548;28;20025;-72
2022/07/17 12:47:54;;;;;;;2.97;2.13;;;;;;;;;;5026835;28;20037;-80
2022/07/17 12:50:20;;;;;;;3.75;2.20;;;;;;;;;;5027254;28;20056;-76
2022/07/17 12:52:45;;;;;;;3.78;2.03;;;;;;;;;;5026396;28;20055;-73
2022/07/17 12:55:11;;;;;;;1.88;1.77;;;;;;;;;;5026629;28;20033;-74
2022/07/17 12:57:36;;;;;;;2.25;2.08;;;;;;;;;;5025580;28;20120;-71
2022/07/17 13:00:03;;;;;;;2.25;1.90;;;;;;;;;;5025231;28;20109;-73
2022/07/17 13:02:28;;;;;;;1.90;1.80;;;;;;;;;;5025899;28;20078;-74
2022/07/17 13:04:53;;;;;;;3.63;1.90;;;;;;;;;;5019348;28;20033;-79
2022/07/17 13:07:19;;;;;;;2.05;1.90;;;;;;;;;;5026505;28;20044;-76
2022/07/17 13:09:44;;;;;;;3.25;2.05;;;;;;;;;;5026462;28;20024;-74
2022/07/17 13:12:09;;;;;;;2.65;1.98;;;;;;;;;;5026478;28;20116;-72
2022/07/17 13:14:35;;;;;;;2.67;1.90;;;;;;;;;;5025637;28;20432;-74
2022/07/17 13:17:00;;;;;;;2.00;1.85;;;;;;;;;;5031745;28;20346;-73
2022/07/17 13:19:26;;;;;;;1.88;1.77;;;;;;;;;;5027011;28;20029;-77
2022/07/17 13:21:51;;;;;;;1.80;1.70;;;;;;;;;;5025380;28;20035;-72
2022/07/17 13:24:17;;;;;;;2.45;2.15;;;;;;;;;;5029891;28;20355;-75
2022/07/17 13:26:42;;;;;;;3.75;1.75;;;;;;;;;;5024933;28;20024;-71
2022/07/17 13:29:07;;;;;;;2.40;1.75;;;;;;;;;;5029594;28;20341;-71
2022/07/17 13:31:33;;;;;;;2.13;1.95;;;;;;;;;;5031634;28;20650;-75
2022/07/17 13:33:58;;;;;;;2.33;1.92;;;;;;;;;;5026250;28;20040;-72
2022/07/17 13:36:23;;;;;;;2.35;2.15;;;;;;;;;;5040878;28;20059;-70
2022/07/17 13:38:49;;;;;;;3.13;1.95;;;;;;;;;;5040783;28;20496;-73
2022/07/17 13:41:14;;;;;;;2.15;1.95;;;;;;;;;;5037275;28;20371;-71
2022/07/17 13:43:39;;;;;;;3.67;2.20;;;;;;;;;;5025085;28;20124;-71
2022/07/17 13:46:05;;;;;;;2.92;2.65;;;;;;;;;;5027263;28;20041;-71
2022/07/17 13:48:30;;;;;;;3.10;2.00;;;;;;;;;;5025595;28;20444;-72
2022/07/17 13:50:55;;;;;;;4.65;2.83;;;;;;;;;;5033490;28;20040;-76
2022/07/17 13:53:21;;;;;;;3.47;1.98;;;;;;;;;;5030849;28;20045;-73
2022/07/17 13:55:47;;;;;;;2.33;1.80;;;;;;;;;;5027475;28;20017;-79
2022/07/17 13:58:12;;;;;;;2.50;2.30;;;;;;;;;;5029473;28;20037;-72
2022/07/17 14:00:37;;;;;;;5.50;2.30;;;;;;;;;;5027821;28;20029;-72
2022/07/17 14:03:03;;;;;;;3.67;1.80;;;;;;;;;;5028746;28;20029;-71
2022/07/17 14:05:28;;;;;;;2.20;1.75;;;;;;;;;;5026950;28;20074;-75
2022/07/17 14:07:54;;;;;;;3.42;2.00;;;;;;;;;;5028067;28;20037;-72
2022/07/17 14:10:19;;;;;;;3.47;2.10;;;;;;;;;;5029435;28;20138;-72
2022/07/17 14:12:45;;;;;;;3.00;2.00;;;;;;;;;;5029077;28;20060;-74
2022/07/17 14:15:10;;;;;;;1.83;1.60;;;;;;;;;;5028423;28;20341;-76
2022/07/17 14:17:36;;;;;;;1.90;1.73;;;;;;;;;;5032536;28;20082;-76
2022/07/17 14:20:02;;;;;;;1.95;1.70;;;;;;;;;;5034590;28;20036;-78
2022/07/17 14:22:27;;;;;;;2.45;2.03;;;;;;;;;;5030696;28;20068;-74
2022/07/17 14:24:53;;;;;;;1.80;1.70;;;;;;;;;;5030048;28;20067;-72
2022/07/17 14:27:18;;;;;;;1.77;1.67;;;;;;;;;;5029934;28;20092;-73
2022/07/17 14:29:43;;;;;;;3.05;1.58;;;;;;;;;;5029006;28;20194;-73
2022/07/17 14:32:09;;;;;;;4.50;1.60;;;;;;;;;;5033241;28;20029;-74
2022/07/17 14:34:34;;;;;;;2.10;1.70;;;;;;;;;;5044740;28;20029;-71
2022/07/17 14:37:02;;;;;;;1.65;1.55;;;;;;;;;;5045298;28;20467;-77
2022/07/17 14:39:28;;;;;;;2.25;2.00;;;;;;;;;;5035723;28;20104;-71